sensor_id;sensor_type;location;lat;lon;timestamp;temperature;humidity
18126;DHT22;53956;52.442;13.284;2023-10-31T00:00:52;15.60;99.90
18126;DHT22;53956;52.442;13.284;2023-10-31T00:03:19;15.50;99.90
18126;DHT22;53956;52.442;13.284;2023-10-31T00:05:46;15.50;99.90
18126;DHT22;53956;52.442;13.284;2023-10-31T00:08:13;15.70;99.90
18126;DHT22;53956;52.442;13.284;2023-10-31T00:10:40;15.70;99.90
18126;DHT22;53956;52.442;13.284;2023-10-31T00:13:10;15.60;99.90
18126;DHT22;53956;52.442;13.284;2023-10-31T00:15:37;15.30;99.90
18126;DHT22;53956;52.442;13.284;2023-10-31T00:18:03;15.30;99.90
18126;DHT22;53956;52.442;13.284;2023-10-31T00:20:30;15.60;99.90
18126;DHT22;53956;52.442;13.284;2023-10-31T00:22:58;15.70;99.90
18126;DHT22;53956;52.442;13.284;2023-10-31T00:25:24;15.60;99.90
18126;DHT22;53956;52.442;13.284;2023-10-31T00:27:51;15.30;99.90
18126;DHT22;53956;52.442;13.284;2023-10-31T00:30:18;15.40;99.90
18126;DHT22;53956;52.442;13.284;2023-10-31T00:32:45;15.40;99.90
18126;DHT22;53956;52.442;13.284;2023-10-31T00:35:11;15.60;99.90
18126;DHT22;53956;52.442;13.284;2023-10-31T00:37:38;15.60;99.90
18126;DHT22;53956;52.442;13.284;2023-10-31T00:40:08;15.30;99.90
18126;DHT22;53956;52.442;13.284;2023-10-31T00:42:36;15.40;99.90
18126;DHT22;53956;52.442;13.284;2023-10-31T00:45:03;15.50;99.90
18126;DHT22;53956;52.442;13.284;2023-10-31T00:47:30;15.60;99.90
18126;DHT22;53956;52.442;13.284;2023-10-31T00:49:57;15.70;99.90
18126;DHT22;53956;52.442;13.284;2023-10-31T00:52:23;15.70;99.90
18126;DHT22;53956;52.442;13.284;2023-10-31T00:54:50;15.80;99.90
18126;DHT22;53956;52.442;13.284;2023-10-31T00:57:18;15.80;99.90
18126;DHT22;53956;52.442;13.284;2023-10-31T00:59:45;15.80;99.90
18126;DHT22;53956;52.442;13.284;2023-10-31T01:02:11;15.80;99.90
18126;DHT22;53956;52.442;13.284;2023-10-31T01:04:38;15.70;99.90
18126;DHT22;53956;52.442;13.284;2023-10-31T01:07:05;15.70;99.90
18126;DHT22;53956;52.442;13.284;2023-10-31T01:09:31;15.40;99.90
18126;DHT22;53956;52.442;13.284;2023-10-31T01:11:58;15.50;99.90
18126;DHT22;53956;52.442;13.284;2023-10-31T01:14:26;15.60;99.90
18126;DHT22;53956;52.442;13.284;2023-10-31T01:16:52;15.60;99.90
18126;DHT22;53956;52.442;13.284;2023-10-31T01:19:19;15.70;99.90
18126;DHT22;53956;52.442;13.284;2023-10-31T01:21:45;15.60;99.90
18126;DHT22;53956;52.442;13.284;2023-10-31T01:24:12;15.60;99.90
18126;DHT22;53956;52.442;13.284;2023-10-31T01:26:39;15.60;99.90
18126;DHT22;53956;52.442;13.284;2023-10-31T01:29:05;15.50;99.90
18126;DHT22;53956;52.442;13.284;2023-10-31T01:31:34;15.70;99.90
18126;DHT22;53956;52.442;13.284;2023-10-31T01:34:02;15.70;99.90
18126;DHT22;53956;52.442;13.284;2023-10-31T01:36:29;15.70;99.90
18126;DHT22;53956;52.442;13.284;2023-10-31T01:38:55;15.70;99.90
18126;DHT22;53956;52.442;13.284;2023-10-31T01:41:22;15.80;99.90
18126;DHT22;53956;52.442;13.284;2023-10-31T01:43:49;15.60;99.90
18126;DHT22;53956;52.442;13.284;2023-10-31T01:46:15;15.70;99.90
18126;DHT22;53956;52.442;13.284;2023-10-31T01:48:43;15.80;99.90
18126;DHT22;53956;52.442;13.284;2023-10-31T01:51:10;15.70;99.90
18126;DHT22;53956;52.442;13.284;2023-10-31T01:53:37;15.60;99.90
18126;DHT22;53956;52.442;13.284;2023-10-31T01:56:05;15.70;99.90
18126;DHT22;53956;52.442;13.284;2023-10-31T01:58:32;15.70;99.90
18126;DHT22;53956;52.442;13.284;2023-10-31T02:01:00;15.60;99.90
18126;DHT22;53956;52.442;13.284;2023-10-31T02:03:27;15.60;99.90
18126;DHT22;53956;52.442;13.284;2023-10-31T02:05:56;15.60;99.90
18126;DHT22;53956;52.442;13.284;2023-10-31T02:08:24;15.50;99.90
18126;DHT22;53956;52.442;13.284;2023-10-31T02:10:51;15.60;99.90
18126;DHT22;53956;52.442;13.284;2023-10-31T02:13:18;15.70;99.90
18126;DHT22;53956;52.442;13.284;2023-10-31T02:15:45;15.60;99.90
18126;DHT22;53956;52.442;13.284;2023-10-31T02:18:12;15.60;99.90
18126;DHT22;53956;52.442;13.284;2023-10-31T02:20:39;15.50;99.90
18126;DHT22;53956;52.442;13.284;2023-10-31T02:23:07;15.60;99.90
18126;DHT22;53956;52.442;13.284;2023-10-31T02:25:34;15.40;99.90
18126;DHT22;53956;52.442;13.284;2023-10-31T02:28:00;15.60;99.90
18126;DHT22;53956;52.442;13.284;2023-10-31T02:30:27;15.40;99.90
18126;DHT22;53956;52.442;13.284;2023-10-31T02:32:54;15.40;99.90
18126;DHT22;53956;52.442;13.284;2023-10-31T02:35:21;15.40;99.90
18126;DHT22;53956;52.442;13.284;2023-10-31T02:37:48;15.50;99.90
18126;DHT22;53956;52.442;13.284;2023-10-31T02:40:16;15.50;99.90
18126;DHT22;53956;52.442;13.284;2023-10-31T02:42:43;15.50;99.90
18126;DHT22;53956;52.442;13.284;2023-10-31T02:45:10;15.50;99.90
18126;DHT22;53956;52.442;13.284;2023-10-31T02:47:37;15.50;99.90
18126;DHT22;53956;52.442;13.284;2023-10-31T02:50:05;15.50;99.90
18126;DHT22;53956;52.442;13.284;2023-10-31T02:52:32;15.50;99.90
18126;DHT22;53956;52.442;13.284;2023-10-31T02:54:58;15.50;99.90
18126;DHT22;53956;52.442;13.284;2023-10-31T02:57:26;15.40;99.90
18126;DHT22;53956;52.442;13.284;2023-10-31T02:59:53;15.50;99.90
18126;DHT22;53956;52.442;13.284;2023-10-31T03:02:19;15.40;99.90
18126;DHT22;53956;52.442;13.284;2023-10-31T03:04:47;15.40;99.90
18126;DHT22;53956;52.442;13.284;2023-10-31T03:07:14;15.40;99.90
18126;DHT22;53956;52.442;13.284;2023-10-31T03:09:41;15.40;99.90
18126;DHT22;53956;52.442;13.284;2023-10-31T03:12:07;15.40;99.90
18126;DHT22;53956;52.442;13.284;2023-10-31T03:14:35;15.40;99.90
18126;DHT22;53956;52.442;13.284;2023-10-31T03:17:02;15.40;99.90
18126;DHT22;53956;52.442;13.284;2023-10-31T03:19:29;15.40;99.90
18126;DHT22;53956;52.442;13.284;2023-10-31T03:21:56;15.30;99.90
18126;DHT22;53956;52.442;13.284;2023-10-31T03:24:22;15.30;99.90
18126;DHT22;53956;52.442;13.284;2023-10-31T03:26:49;15.40;99.90
18126;DHT22;53956;52.442;13.284;2023-10-31T03:29:15;15.40;99.90
18126;DHT22;53956;52.442;13.284;2023-10-31T03:31:43;15.40;99.90
18126;DHT22;53956;52.442;13.284;2023-10-31T03:34:10;15.40;99.90
18126;DHT22;53956;52.442;13.284;2023-10-31T03:36:36;15.40;99.90
18126;DHT22;53956;52.442;13.284;2023-10-31T03:39:03;15.40;99.90
18126;DHT22;53956;52.442;13.284;2023-10-31T03:41:30;15.40;99.90
18126;DHT22;53956;52.442;13.284;2023-10-31T03:43:56;15.50;99.90
18126;DHT22;53956;52.442;13.284;2023-10-31T03:46:23;15.50;99.90
18126;DHT22;53956;52.442;13.284;2023-10-31T03:48:51;15.50;99.90
18126;DHT22;53956;52.442;13.284;2023-10-31T03:51:17;15.50;99.90
18126;DHT22;53956;52.442;13.284;2023-10-31T03:53:44;15.50;99.90
18126;DHT22;53956;52.442;13.284;2023-10-31T03:56:11;15.50;99.90
18126;DHT22;53956;52.442;13.284;2023-10-31T03:58:40;15.50;99.90
18126;DHT22;53956;52.442;13.284;2023-10-31T04:01:07;15.50;99.90
18126;DHT22;53956;52.442;13.284;2023-10-31T04:03:34;15.50;99.90
18126;DHT22;53956;52.442;13.284;2023-10-31T04:06:02;15.50;99.90
18126;DHT22;53956;52.442;13.284;2023-10-31T04:08:29;15.50;99.90
18126;DHT22;53956;52.442;13.284;2023-10-31T04:10:56;15.60;99.90
18126;DHT22;53956;52.442;13.284;2023-10-31T04:13:22;15.50;99.90
18126;DHT22;53956;52.442;13.284;2023-10-31T04:15:49;15.50;99.90
18126;DHT22;53956;52.442;13.284;2023-10-31T04:18:16;15.60;99.90
18126;DHT22;53956;52.442;13.284;2023-10-31T04:20:42;15.50;99.90
18126;DHT22;53956;52.442;13.284;2023-10-31T04:23:10;15.50;99.90
18126;DHT22;53956;52.442;13.284;2023-10-31T04:25:37;15.50;99.90
18126;DHT22;53956;52.442;13.284;2023-10-31T04:28:04;15.40;99.90
18126;DHT22;53956;52.442;13.284;2023-10-31T04:30:30;15.50;99.90
18126;DHT22;53956;52.442;13.284;2023-10-31T04:32:57;15.50;99.90
18126;DHT22;53956;52.442;13.284;2023-10-31T04:35:24;15.60;99.90
18126;DHT22;53956;52.442;13.284;2023-10-31T04:37:50;15.50;99.90
18126;DHT22;53956;52.442;13.284;2023-10-31T04:40:18;15.50;99.90
18126;DHT22;53956;52.442;13.284;2023-10-31T04:42:46;15.50;99.90
18126;DHT22;53956;52.442;13.284;2023-10-31T04:45:13;15.50;99.90
18126;DHT22;53956;52.442;13.284;2023-10-31T04:47:40;15.60;99.90
18126;DHT22;53956;52.442;13.284;2023-10-31T04:50:08;15.60;99.90
18126;DHT22;53956;52.442;13.284;2023-10-31T04:52:34;15.50;99.90
18126;DHT22;53956;52.442;13.284;2023-10-31T04:55:01;15.60;99.90
18126;DHT22;53956;52.442;13.284;2023-10-31T04:57:29;15.60;99.90
18126;DHT22;53956;52.442;13.284;2023-10-31T04:59:56;15.60;99.90
18126;DHT22;53956;52.442;13.284;2023-10-31T05:02:24;15.50;99.90
18126;DHT22;53956;52.442;13.284;2023-10-31T05:04:51;15.50;99.90
18126;DHT22;53956;52.442;13.284;2023-10-31T05:07:17;15.50;99.90
18126;DHT22;53956;52.442;13.284;2023-10-31T05:09:44;15.60;99.90
18126;DHT22;53956;52.442;13.284;2023-10-31T05:12:11;15.60;99.90
18126;DHT22;53956;52.442;13.284;2023-10-31T05:14:40;15.60;99.90
18126;DHT22;53956;52.442;13.284;2023-10-31T05:17:06;15.60;99.90
18126;DHT22;53956;52.442;13.284;2023-10-31T05:19:33;15.60;99.90
18126;DHT22;53956;52.442;13.284;2023-10-31T05:21:59;15.50;99.90
18126;DHT22;53956;52.442;13.284;2023-10-31T05:24:26;15.60;99.90
18126;DHT22;53956;52.442;13.284;2023-10-31T05:26:53;15.50;99.90
18126;DHT22;53956;52.442;13.284;2023-10-31T05:29:19;15.60;99.90
18126;DHT22;53956;52.442;13.284;2023-10-31T05:31:47;15.60;99.90
18126;DHT22;53956;52.442;13.284;2023-10-31T05:34:14;15.60;99.90
18126;DHT22;53956;52.442;13.284;2023-10-31T05:36:40;15.60;99.90
18126;DHT22;53956;52.442;13.284;2023-10-31T05:39:07;15.60;99.90
18126;DHT22;53956;52.442;13.284;2023-10-31T05:41:35;15.60;99.90
18126;DHT22;53956;52.442;13.284;2023-10-31T05:44:02;15.50;99.90
18126;DHT22;53956;52.442;13.284;2023-10-31T05:46:28;15.50;99.90
18126;DHT22;53956;52.442;13.284;2023-10-31T05:48:56;15.50;99.90
18126;DHT22;53956;52.442;13.284;2023-10-31T05:51:23;15.50;99.90
18126;DHT22;53956;52.442;13.284;2023-10-31T05:53:51;15.40;99.90
18126;DHT22;53956;52.442;13.284;2023-10-31T05:56:17;15.50;99.90
18126;DHT22;53956;52.442;13.284;2023-10-31T05:58:44;15.60;99.90
18126;DHT22;53956;52.442;13.284;2023-10-31T06:01:10;15.50;99.90
18126;DHT22;53956;52.442;13.284;2023-10-31T06:03:37;15.40;99.90
18126;DHT22;53956;52.442;13.284;2023-10-31T06:06:09;15.50;99.90
18126;DHT22;53956;52.442;13.284;2023-10-31T06:08:35;15.40;99.90
18126;DHT22;53956;52.442;13.284;2023-10-31T06:11:03;15.50;99.90
18126;DHT22;53956;52.442;13.284;2023-10-31T06:13:30;15.60;99.90
18126;DHT22;53956;52.442;13.284;2023-10-31T06:15:57;15.50;99.90
18126;DHT22;53956;52.442;13.284;2023-10-31T06:18:24;15.50;99.90
18126;DHT22;53956;52.442;13.284;2023-10-31T06:20:50;15.60;99.90
18126;DHT22;53956;52.442;13.284;2023-10-31T06:23:18;15.50;99.90
18126;DHT22;53956;52.442;13.284;2023-10-31T06:25:45;15.50;99.90
18126;DHT22;53956;52.442;13.284;2023-10-31T06:28:12;15.60;99.90
18126;DHT22;53956;52.442;13.284;2023-10-31T06:30:39;15.50;99.90
18126;DHT22;53956;52.442;13.284;2023-10-31T06:33:05;15.50;99.90
18126;DHT22;53956;52.442;13.284;2023-10-31T06:35:33;15.60;99.90
18126;DHT22;53956;52.442;13.284;2023-10-31T06:38:00;15.50;99.90
18126;DHT22;53956;52.442;13.284;2023-10-31T06:40:28;15.70;99.90
18126;DHT22;53956;52.442;13.284;2023-10-31T06:42:55;15.50;99.90
18126;DHT22;53956;52.442;13.284;2023-10-31T06:45:22;15.60;99.90
18126;DHT22;53956;52.442;13.284;2023-10-31T06:47:48;15.60;99.90
18126;DHT22;53956;52.442;13.284;2023-10-31T06:50:15;15.60;99.90
18126;DHT22;53956;52.442;13.284;2023-10-31T06:52:41;15.60;99.90
18126;DHT22;53956;52.442;13.284;2023-10-31T06:55:08;15.50;99.90
18126;DHT22;53956;52.442;13.284;2023-10-31T06:57:36;15.60;99.90
18126;DHT22;53956;52.442;13.284;2023-10-31T07:00:04;15.50;99.90
18126;DHT22;53956;52.442;13.284;2023-10-31T07:02:33;15.60;99.90
18126;DHT22;53956;52.442;13.284;2023-10-31T07:05:00;15.50;99.90
18126;DHT22;53956;52.442;13.284;2023-10-31T07:07:27;15.50;99.90
18126;DHT22;53956;52.442;13.284;2023-10-31T07:09:53;15.50;99.90
18126;DHT22;53956;52.442;13.284;2023-10-31T07:12:20;15.50;99.90
18126;DHT22;53956;52.442;13.284;2023-10-31T07:14:48;15.40;99.90
18126;DHT22;53956;52.442;13.284;2023-10-31T07:17:14;15.50;99.90
18126;DHT22;53956;52.442;13.284;2023-10-31T07:19:41;15.50;99.90
18126;DHT22;53956;52.442;13.284;2023-10-31T07:22:08;15.30;99.90
18126;DHT22;53956;52.442;13.284;2023-10-31T07:24:34;15.20;99.90
18126;DHT22;53956;52.442;13.284;2023-10-31T07:27:01;15.20;99.90
18126;DHT22;53956;52.442;13.284;2023-10-31T07:29:28;15.20;99.90
18126;DHT22;53956;52.442;13.284;2023-10-31T07:31:56;15.20;99.90
18126;DHT22;53956;52.442;13.284;2023-10-31T07:34:22;15.20;99.90
18126;DHT22;53956;52.442;13.284;2023-10-31T07:36:49;15.10;99.90
18126;DHT22;53956;52.442;13.284;2023-10-31T07:39:16;15.00;99.90
18126;DHT22;53956;52.442;13.284;2023-10-31T07:41:42;15.00;99.90
18126;DHT22;53956;52.442;13.284;2023-10-31T07:44:09;15.00;99.90
18126;DHT22;53956;52.442;13.284;2023-10-31T07:46:36;14.90;99.90
18126;DHT22;53956;52.442;13.284;2023-10-31T07:49:04;14.90;99.90
18126;DHT22;53956;52.442;13.284;2023-10-31T07:51:31;14.90;99.90
18126;DHT22;53956;52.442;13.284;2023-10-31T07:53:57;14.90;99.90
18126;DHT22;53956;52.442;13.284;2023-10-31T07:56:24;14.70;99.90
18126;DHT22;53956;52.442;13.284;2023-10-31T07:58:51;14.70;99.90
18126;DHT22;53956;52.442;13.284;2023-10-31T08:01:22;14.70;99.90
18126;DHT22;53956;52.442;13.284;2023-10-31T08:03:49;14.80;99.90
18126;DHT22;53956;52.442;13.284;2023-10-31T08:06:17;14.70;99.90
18126;DHT22;53956;52.442;13.284;2023-10-31T08:08:44;14.80;99.90
18126;DHT22;53956;52.442;13.284;2023-10-31T08:11:11;14.90;99.90
18126;DHT22;53956;52.442;13.284;2023-10-31T08:13:38;15.00;99.90
18126;DHT22;53956;52.442;13.284;2023-10-31T08:16:06;15.00;99.90
18126;DHT22;53956;52.442;13.284;2023-10-31T08:18:33;15.00;99.90
18126;DHT22;53956;52.442;13.284;2023-10-31T08:20:59;15.10;99.90
18126;DHT22;53956;52.442;13.284;2023-10-31T08:23:28;15.00;99.90
18126;DHT22;53956;52.442;13.284;2023-10-31T08:25:55;15.10;99.90
18126;DHT22;53956;52.442;13.284;2023-10-31T08:28:22;15.10;99.90
18126;DHT22;53956;52.442;13.284;2023-10-31T08:30:48;15.10;99.90
18126;DHT22;53956;52.442;13.284;2023-10-31T08:33:15;15.20;99.90
18126;DHT22;53956;52.442;13.284;2023-10-31T08:35:42;15.30;99.90
18126;DHT22;53956;52.442;13.284;2023-10-31T08:38:09;15.20;99.90
18126;DHT22;53956;52.442;13.284;2023-10-31T08:40:37;15.30;99.90
18126;DHT22;53956;52.442;13.284;2023-10-31T08:43:03;15.30;99.90
18126;DHT22;53956;52.442;13.284;2023-10-31T08:45:32;15.40;99.90
18126;DHT22;53956;52.442;13.284;2023-10-31T08:47:58;15.30;99.90
18126;DHT22;53956;52.442;13.284;2023-10-31T08:50:25;15.40;99.90
18126;DHT22;53956;52.442;13.284;2023-10-31T08:52:52;15.40;99.90
18126;DHT22;53956;52.442;13.284;2023-10-31T08:55:18;15.40;99.90
18126;DHT22;53956;52.442;13.284;2023-10-31T08:57:47;15.30;99.90
18126;DHT22;53956;52.442;13.284;2023-10-31T09:00:14;15.20;99.90
18126;DHT22;53956;52.442;13.284;2023-10-31T09:02:40;15.10;99.90
18126;DHT22;53956;52.442;13.284;2023-10-31T09:05:08;15.10;99.90
18126;DHT22;53956;52.442;13.284;2023-10-31T09:07:35;15.10;99.90
18126;DHT22;53956;52.442;13.284;2023-10-31T09:10:02;15.00;99.90
18126;DHT22;53956;52.442;13.284;2023-10-31T09:12:30;15.00;99.90
18126;DHT22;53956;52.442;13.284;2023-10-31T09:14:58;15.20;99.90
18126;DHT22;53956;52.442;13.284;2023-10-31T09:17:25;15.10;99.90
18126;DHT22;53956;52.442;13.284;2023-10-31T09:19:51;15.20;99.90
18126;DHT22;53956;52.442;13.284;2023-10-31T09:22:19;15.40;99.90
18126;DHT22;53956;52.442;13.284;2023-10-31T09:24:45;15.30;99.90
18126;DHT22;53956;52.442;13.284;2023-10-31T09:27:12;15.30;99.90
18126;DHT22;53956;52.442;13.284;2023-10-31T09:29:39;15.40;99.90
18126;DHT22;53956;52.442;13.284;2023-10-31T09:32:07;15.30;99.90
18126;DHT22;53956;52.442;13.284;2023-10-31T09:34:33;15.30;99.90
18126;DHT22;53956;52.442;13.284;2023-10-31T09:37:00;15.40;99.90
18126;DHT22;53956;52.442;13.284;2023-10-31T09:39:27;15.40;99.90
18126;DHT22;53956;52.442;13.284;2023-10-31T09:41:54;15.30;99.90
18126;DHT22;53956;52.442;13.284;2023-10-31T09:44:21;15.40;99.90
18126;DHT22;53956;52.442;13.284;2023-10-31T09:46:48;15.40;99.90
18126;DHT22;53956;52.442;13.284;2023-10-31T09:49:16;15.50;99.90
18126;DHT22;53956;52.442;13.284;2023-10-31T09:51:43;15.50;99.90
18126;DHT22;53956;52.442;13.284;2023-10-31T09:54:11;15.40;99.90
18126;DHT22;53956;52.442;13.284;2023-10-31T09:56:41;15.40;99.90
18126;DHT22;53956;52.442;13.284;2023-10-31T09:59:09;15.40;99.90
18126;DHT22;53956;52.442;13.284;2023-10-31T10:01:36;15.40;99.90
18126;DHT22;53956;52.442;13.284;2023-10-31T10:04:02;15.50;99.90
18126;DHT22;53956;52.442;13.284;2023-10-31T10:06:31;15.30;99.90
18126;DHT22;53956;52.442;13.284;2023-10-31T10:08:59;15.50;99.90
18126;DHT22;53956;52.442;13.284;2023-10-31T10:11:28;15.40;99.90
18126;DHT22;53956;52.442;13.284;2023-10-31T10:13:56;15.40;99.90
18126;DHT22;53956;52.442;13.284;2023-10-31T10:16:30;15.50;99.90
18126;DHT22;53956;52.442;13.284;2023-10-31T10:18:57;15.30;99.90
18126;DHT22;53956;52.442;13.284;2023-10-31T10:21:48;15.30;99.90
18126;DHT22;53956;52.442;13.284;2023-10-31T10:24:15;15.30;99.90
18126;DHT22;53956;52.442;13.284;2023-10-31T10:26:42;15.30;99.90
18126;DHT22;53956;52.442;13.284;2023-10-31T10:29:08;15.30;99.90
18126;DHT22;53956;52.442;13.284;2023-10-31T10:31:35;15.50;99.90
18126;DHT22;53956;52.442;13.284;2023-10-31T10:34:01;15.40;99.90
18126;DHT22;53956;52.442;13.284;2023-10-31T10:36:29;15.50;99.90
18126;DHT22;53956;52.442;13.284;2023-10-31T10:39:00;15.70;99.90
18126;DHT22;53956;52.442;13.284;2023-10-31T10:41:27;15.60;99.90
18126;DHT22;53956;52.442;13.284;2023-10-31T10:43:56;15.60;99.90
18126;DHT22;53956;52.442;13.284;2023-10-31T10:46:24;15.60;99.90
18126;DHT22;53956;52.442;13.284;2023-10-31T10:48:55;15.60;99.90
18126;DHT22;53956;52.442;13.284;2023-10-31T10:51:25;15.60;99.90
18126;DHT22;53956;52.442;13.284;2023-10-31T10:54:01;15.60;99.90
18126;DHT22;53956;52.442;13.284;2023-10-31T10:56:35;15.80;99.90
18126;DHT22;53956;52.442;13.284;2023-10-31T10:59:10;15.70;99.90
18126;DHT22;53956;52.442;13.284;2023-10-31T11:01:40;15.80;99.90
18126;DHT22;53956;52.442;13.284;2023-10-31T11:04:08;15.70;99.90
18126;DHT22;53956;52.442;13.284;2023-10-31T11:06:37;15.60;99.90
18126;DHT22;53956;52.442;13.284;2023-10-31T11:09:05;15.60;99.90
18126;DHT22;53956;52.442;13.284;2023-10-31T11:11:32;15.70;99.90
18126;DHT22;53956;52.442;13.284;2023-10-31T11:14:00;15.70;99.90
18126;DHT22;53956;52.442;13.284;2023-10-31T11:16:33;15.80;99.90
18126;DHT22;53956;52.442;13.284;2023-10-31T11:19:01;15.80;99.90
18126;DHT22;53956;52.442;13.284;2023-10-31T11:21:28;15.80;99.90
18126;DHT22;53956;52.442;13.284;2023-10-31T11:23:58;16.00;99.90
18126;DHT22;53956;52.442;13.284;2023-10-31T11:26:27;15.90;99.90
18126;DHT22;53956;52.442;13.284;2023-10-31T11:29:03;15.80;99.90
18126;DHT22;53956;52.442;13.284;2023-10-31T11:31:30;15.80;99.90
18126;DHT22;53956;52.442;13.284;2023-10-31T11:33:57;15.70;99.90
18126;DHT22;53956;52.442;13.284;2023-10-31T11:36:23;15.70;99.90
18126;DHT22;53956;52.442;13.284;2023-10-31T11:39:10;15.70;99.90
18126;DHT22;53956;52.442;13.284;2023-10-31T11:41:39;15.60;99.90
18126;DHT22;53956;52.442;13.284;2023-10-31T11:44:06;15.60;99.90
18126;DHT22;53956;52.442;13.284;2023-10-31T11:46:32;15.60;99.90
18126;DHT22;53956;52.442;13.284;2023-10-31T11:48:59;15.60;99.90
18126;DHT22;53956;52.442;13.284;2023-10-31T11:51:27;15.50;99.90
18126;DHT22;53956;52.442;13.284;2023-10-31T11:53:54;15.60;99.90
18126;DHT22;53956;52.442;13.284;2023-10-31T11:56:21;15.70;99.90
18126;DHT22;53956;52.442;13.284;2023-10-31T11:59:03;15.50;99.90
18126;DHT22;53956;52.442;13.284;2023-10-31T12:01:32;15.50;99.90
18126;DHT22;53956;52.442;13.284;2023-10-31T12:03:58;15.50;99.90
18126;DHT22;53956;52.442;13.284;2023-10-31T12:06:25;15.50;99.90
18126;DHT22;53956;52.442;13.284;2023-10-31T12:08:52;15.50;99.90
18126;DHT22;53956;52.442;13.284;2023-10-31T12:11:19;15.60;99.90
18126;DHT22;53956;52.442;13.284;2023-10-31T12:13:55;15.50;99.90
18126;DHT22;53956;52.442;13.284;2023-10-31T12:16:27;15.50;99.90
18126;DHT22;53956;52.442;13.284;2023-10-31T12:18:55;15.60;99.90
18126;DHT22;53956;52.442;13.284;2023-10-31T12:21:38;15.50;99.90
18126;DHT22;53956;52.442;13.284;2023-10-31T12:24:07;15.40;99.90
18126;DHT22;53956;52.442;13.284;2023-10-31T12:26:34;15.40;99.90
18126;DHT22;53956;52.442;13.284;2023-10-31T12:29:08;15.50;99.90
18126;DHT22;53956;52.442;13.284;2023-10-31T12:31:39;15.40;99.90
18126;DHT22;53956;52.442;13.284;2023-10-31T12:34:06;15.40;99.90
18126;DHT22;53956;52.442;13.284;2023-10-31T12:36:35;15.40;99.90
18126;DHT22;53956;52.442;13.284;2023-10-31T12:39:02;15.50;99.90
18126;DHT22;53956;52.442;13.284;2023-10-31T12:41:31;15.50;99.90
18126;DHT22;53956;52.442;13.284;2023-10-31T12:43:58;15.40;99.90
18126;DHT22;53956;52.442;13.284;2023-10-31T12:46:26;15.50;99.90
18126;DHT22;53956;52.442;13.284;2023-10-31T12:48:54;15.60;99.90
18126;DHT22;53956;52.442;13.284;2023-10-31T12:51:21;15.60;99.90
18126;DHT22;53956;52.442;13.284;2023-10-31T12:53:48;15.50;99.90
18126;DHT22;53956;52.442;13.284;2023-10-31T12:56:36;15.50;99.90
18126;DHT22;53956;52.442;13.284;2023-10-31T12:59:05;15.60;99.90
18126;DHT22;53956;52.442;13.284;2023-10-31T13:01:32;15.50;99.90
18126;DHT22;53956;52.442;13.284;2023-10-31T13:04:00;15.40;99.90
18126;DHT22;53956;52.442;13.284;2023-10-31T13:06:27;15.50;99.90
18126;DHT22;53956;52.442;13.284;2023-10-31T13:08:55;15.40;99.90
18126;DHT22;53956;52.442;13.284;2023-10-31T13:11:22;15.40;99.90
18126;DHT22;53956;52.442;13.284;2023-10-31T13:13:51;15.50;99.90
18126;DHT22;53956;52.442;13.284;2023-10-31T13:16:18;15.50;99.90
18126;DHT22;53956;52.442;13.284;2023-10-31T13:18:45;15.40;99.90
18126;DHT22;53956;52.442;13.284;2023-10-31T13:21:13;15.40;99.90
18126;DHT22;53956;52.442;13.284;2023-10-31T13:23:40;15.40;99.90
18126;DHT22;53956;52.442;13.284;2023-10-31T13:26:10;15.40;99.90
18126;DHT22;53956;52.442;13.284;2023-10-31T13:28:37;15.40;99.90
18126;DHT22;53956;52.442;13.284;2023-10-31T13:31:05;15.50;99.90
18126;DHT22;53956;52.442;13.284;2023-10-31T13:33:32;15.40;99.90
18126;DHT22;53956;52.442;13.284;2023-10-31T13:35:58;15.50;99.90
18126;DHT22;53956;52.442;13.284;2023-10-31T13:38:26;15.50;99.90
18126;DHT22;53956;52.442;13.284;2023-10-31T13:40:53;15.40;99.90
18126;DHT22;53956;52.442;13.284;2023-10-31T13:43:20;15.40;99.90
18126;DHT22;53956;52.442;13.284;2023-10-31T13:45:46;15.40;99.90
18126;DHT22;53956;52.442;13.284;2023-10-31T13:48:13;15.40;99.90
18126;DHT22;53956;52.442;13.284;2023-10-31T13:50:40;15.40;99.90
18126;DHT22;53956;52.442;13.284;2023-10-31T13:53:07;15.40;99.90
18126;DHT22;53956;52.442;13.284;2023-10-31T13:55:35;15.20;99.90
18126;DHT22;53956;52.442;13.284;2023-10-31T13:58:02;15.20;99.90
18126;DHT22;53956;52.442;13.284;2023-10-31T14:00:29;15.10;99.90
18126;DHT22;53956;52.442;13.284;2023-10-31T14:02:56;15.10;99.90
18126;DHT22;53956;52.442;13.284;2023-10-31T14:05:22;15.00;99.90
18126;DHT22;53956;52.442;13.284;2023-10-31T14:07:50;14.90;99.90
18126;DHT22;53956;52.442;13.284;2023-10-31T14:10:17;15.00;99.90
18126;DHT22;53956;52.442;13.284;2023-10-31T14:12:46;15.00;99.90
18126;DHT22;53956;52.442;13.284;2023-10-31T14:15:13;15.10;99.90
18126;DHT22;53956;52.442;13.284;2023-10-31T14:17:39;15.10;99.90
18126;DHT22;53956;52.442;13.284;2023-10-31T14:20:07;15.10;99.90
18126;DHT22;53956;52.442;13.284;2023-10-31T14:22:34;15.20;99.90
18126;DHT22;53956;52.442;13.284;2023-10-31T14:25:00;15.20;99.90
18126;DHT22;53956;52.442;13.284;2023-10-31T14:27:29;15.30;99.90
18126;DHT22;53956;52.442;13.284;2023-10-31T14:29:57;15.30;99.90
18126;DHT22;53956;52.442;13.284;2023-10-31T14:32:24;15.20;99.90
18126;DHT22;53956;52.442;13.284;2023-10-31T14:34:50;15.10;99.90
18126;DHT22;53956;52.442;13.284;2023-10-31T14:37:17;15.10;99.90
18126;DHT22;53956;52.442;13.284;2023-10-31T14:39:44;15.20;99.90
18126;DHT22;53956;52.442;13.284;2023-10-31T14:42:10;15.20;99.90
18126;DHT22;53956;52.442;13.284;2023-10-31T14:44:37;15.10;99.90
18126;DHT22;53956;52.442;13.284;2023-10-31T14:47:05;15.00;99.90
18126;DHT22;53956;52.442;13.284;2023-10-31T14:49:32;15.00;99.90
18126;DHT22;53956;52.442;13.284;2023-10-31T14:51:58;15.00;99.90
18126;DHT22;53956;52.442;13.284;2023-10-31T14:54:26;14.90;99.90
18126;DHT22;53956;52.442;13.284;2023-10-31T14:56:53;14.80;99.90
18126;DHT22;53956;52.442;13.284;2023-10-31T14:59:20;14.70;99.90
18126;DHT22;53956;52.442;13.284;2023-10-31T15:01:46;14.80;99.90
18126;DHT22;53956;52.442;13.284;2023-10-31T15:04:14;14.80;99.90
18126;DHT22;53956;52.442;13.284;2023-10-31T15:06:41;14.90;99.90
18126;DHT22;53956;52.442;13.284;2023-10-31T15:09:15;14.90;99.90
18126;DHT22;53956;52.442;13.284;2023-10-31T15:11:52;14.80;99.90
18126;DHT22;53956;52.442;13.284;2023-10-31T15:14:19;14.80;99.90
18126;DHT22;53956;52.442;13.284;2023-10-31T15:16:46;14.90;99.90